sensor_id;sensor_type;location;lat;lon;timestamp;pressure;altitude;pressure_sealevel;temperature;humidity
71907;BME280;59781;52.090;5.030;2024-03-23T00:54:15;101118.31;;;7.80;100.00
71907;BME280;59781;52.090;5.030;2024-03-23T00:56:40;101110.59;;;7.67;100.00
71907;BME280;59781;52.090;5.030;2024-03-23T00:59:06;101115.25;;;7.65;100.00
71907;BME280;59781;52.090;5.030;2024-03-23T01:01:32;101116.31;;;8.19;100.00
71907;BME280;59781;52.090;5.030;2024-03-23T01:03:57;101109.31;;;7.71;100.00
71907;BME280;59781;52.090;5.030;2024-03-23T01:06:23;101105.66;;;8.09;100.00
71907;BME280;59781;52.090;5.030;2024-03-23T01:08:49;101098.59;;;7.71;100.00
71907;BME280;59781;52.090;5.030;2024-03-23T01:11:15;101097.53;;;7.91;100.00
71907;BME280;59781;52.090;5.030;2024-03-23T01:13:40;101085.19;;;8.08;100.00
71907;BME280;59781;52.090;5.030;2024-03-23T01:16:06;101076.75;;;7.56;100.00
71907;BME280;59781;52.090;5.030;2024-03-23T01:18:32;101086.84;;;7.35;100.00
71907;BME280;59781;52.090;5.030;2024-03-23T01:20:58;101089.97;;;7.21;100.00
71907;BME280;59781;52.090;5.030;2024-03-23T01:23:23;101078.94;;;7.43;100.00
71907;BME280;59781;52.090;5.030;2024-03-23T01:25:53;101077.00;;;7.06;100.00
71907;BME280;59781;52.090;5.030;2024-03-23T01:28:20;101072.44;;;7.36;100.00
71907;BME280;59781;52.090;5.030;2024-03-23T01:30:47;101088.16;;;7.02;100.00
71907;BME280;59781;52.090;5.030;2024-03-23T01:33:13;101079.28;;;6.92;100.00
71907;BME280;59781;52.090;5.030;2024-03-23T01:35:39;101076.91;;;6.88;100.00
71907;BME280;59781;52.090;5.030;2024-03-23T01:38:04;101082.81;;;6.82;100.00
71907;BME280;59781;52.090;5.030;2024-03-23T01:40:31;101075.34;;;6.76;100.00
71907;BME280;59781;52.090;5.030;2024-03-23T01:43:12;101077.47;;;6.82;100.00
71907;BME280;59781;52.090;5.030;2024-03-23T01:45:38;101075.19;;;6.87;100.00
71907;BME280;59781;52.090;5.030;2024-03-23T01:48:04;101069.44;;;6.63;100.00
71907;BME280;59781;52.090;5.030;2024-03-23T01:50:31;101081.97;;;6.72;100.00
71907;BME280;59781;52.090;5.030;2024-03-23T01:53:01;101064.47;;;6.97;100.00
71907;BME280;59781;52.090;5.030;2024-03-23T01:55:28;101066.91;;;6.81;100.00
71907;BME280;59781;52.090;5.030;2024-03-23T01:57:56;101065.75;;;6.45;100.00
71907;BME280;59781;52.090;5.030;2024-03-23T02:00:23;101070.53;;;6.41;100.00
71907;BME280;59781;52.090;5.030;2024-03-23T02:02:49;101063.63;;;6.87;100.00
71907;BME280;59781;52.090;5.030;2024-03-23T02:05:15;101061.25;;;6.74;100.00
71907;BME280;59781;52.090;5.030;2024-03-23T02:07:42;101073.94;;;6.53;100.00
71907;BME280;59781;52.090;5.030;2024-03-23T02:10:09;101062.25;;;6.83;100.00
71907;BME280;59781;52.090;5.030;2024-03-23T02:12:38;101061.78;;;6.49;100.00
71907;BME280;59781;52.090;5.030;2024-03-23T02:15:04;101074.00;;;6.22;100.00
71907;BME280;59781;52.090;5.030;2024-03-23T02:17:33;101064.91;;;6.54;100.00
71907;BME280;59781;52.090;5.030;2024-03-23T02:19:59;101053.50;;;6.42;100.00
71907;BME280;59781;52.090;5.030;2024-03-23T02:22:38;101057.31;;;5.99;100.00
71907;BME280;59781;52.090;5.030;2024-03-23T02:25:05;101060.59;;;6.03;100.00
71907;BME280;59781;52.090;5.030;2024-03-23T02:27:32;101050.22;;;6.10;100.00
71907;BME280;59781;52.090;5.030;2024-03-23T02:29:58;101047.41;;;6.21;100.00
71907;BME280;59781;52.090;5.030;2024-03-23T02:32:24;101044.81;;;5.90;100.00
71907;BME280;59781;52.090;5.030;2024-03-23T02:34:50;101042.22;;;5.89;100.00
71907;BME280;59781;52.090;5.030;2024-03-23T02:37:15;101031.03;;;6.04;100.00
71907;BME280;59781;52.090;5.030;2024-03-23T02:39:41;101028.09;;;6.08;100.00
71907;BME280;59781;52.090;5.030;2024-03-23T02:42:06;101026.94;;;5.91;100.00
71907;BME280;59781;52.090;5.030;2024-03-23T02:44:32;101028.22;;;5.96;100.00
71907;BME280;59781;52.090;5.030;2024-03-23T02:46:58;101029.75;;;5.68;100.00
71907;BME280;59781;52.090;5.030;2024-03-23T02:49:25;101028.81;;;5.79;100.00
71907;BME280;59781;52.090;5.030;2024-03-23T02:51:50;101032.63;;;5.76;100.00
71907;BME280;59781;52.090;5.030;2024-03-23T02:54:16;101030.47;;;5.61;100.00
71907;BME280;59781;52.090;5.030;2024-03-23T02:56:42;101031.06;;;5.74;100.00
71907;BME280;59781;52.090;5.030;2024-03-23T02:59:07;101036.59;;;5.52;100.00
71907;BME280;59781;52.090;5.030;2024-03-23T03:01:33;101027.25;;;5.36;100.00
71907;BME280;59781;52.090;5.030;2024-03-23T03:04:00;101027.75;;;5.51;100.00
71907;BME280;59781;52.090;5.030;2024-03-23T03:06:26;101033.00;;;5.11;100.00
71907;BME280;59781;52.090;5.030;2024-03-23T03:08:52;101033.81;;;5.02;100.00
71907;BME280;59781;52.090;5.030;2024-03-23T03:11:18;101042.75;;;5.01;100.00
71907;BME280;59781;52.090;5.030;2024-03-23T03:13:44;101038.94;;;4.94;100.00
71907;BME280;59781;52.090;5.030;2024-03-23T03:16:10;101044.56;;;4.79;100.00
71907;BME280;59781;52.090;5.030;2024-03-23T03:18:37;101047.16;;;4.70;100.00
71907;BME280;59781;52.090;5.030;2024-03-23T03:21:04;101037.94;;;4.53;100.00
71907;BME280;59781;52.090;5.030;2024-03-23T03:23:31;101037.78;;;4.54;100.00
71907;BME280;59781;52.090;5.030;2024-03-23T03:25:57;101033.97;;;4.36;100.00
71907;BME280;59781;52.090;5.030;2024-03-23T03:28:23;101028.09;;;4.53;100.00
71907;BME280;59781;52.090;5.030;2024-03-23T03:30:49;101036.38;;;4.39;100.00
71907;BME280;59781;52.090;5.030;2024-03-23T03:33:15;101034.41;;;4.52;100.00
71907;BME280;59781;52.090;5.030;2024-03-23T03:35:40;101029.75;;;4.34;100.00
71907;BME280;59781;52.090;5.030;2024-03-23T03:38:06;101032.50;;;4.43;100.00
71907;BME280;59781;52.090;5.030;2024-03-23T03:40:32;101028.13;;;4.42;100.00
71907;BME280;59781;52.090;5.030;2024-03-23T03:42:57;101022.97;;;4.29;100.00
71907;BME280;59781;52.090;5.030;2024-03-23T03:45:23;101022.06;;;4.40;100.00
71907;BME280;59781;52.090;5.030;2024-03-23T03:47:49;101009.94;;;4.47;100.00
71907;BME280;59781;52.090;5.030;2024-03-23T03:50:14;101005.28;;;4.28;100.00
71907;BME280;59781;52.090;5.030;2024-03-23T03:52:40;101003.94;;;4.34;100.00
71907;BME280;59781;52.090;5.030;2024-03-23T03:55:13;101007.84;;;4.51;100.00
71907;BME280;59781;52.090;5.030;2024-03-23T03:57:40;101000.38;;;4.45;100.00
71907;BME280;59781;52.090;5.030;2024-03-23T04:00:06;100993.44;;;4.74;100.00
71907;BME280;59781;52.090;5.030;2024-03-23T04:02:39;100989.78;;;4.96;100.00
71907;BME280;59781;52.090;5.030;2024-03-23T04:05:06;100986.06;;;4.87;100.00
71907;BME280;59781;52.090;5.030;2024-03-23T04:07:33;100978.72;;;4.59;100.00
71907;BME280;59781;52.090;5.030;2024-03-23T04:09:59;100979.91;;;4.87;100.00
71907;BME280;59781;52.090;5.030;2024-03-23T04:12:25;100974.97;;;4.82;100.00
71907;BME280;59781;52.090;5.030;2024-03-23T04:14:51;100972.03;;;4.85;100.00
71907;BME280;59781;52.090;5.030;2024-03-23T04:17:17;100973.59;;;4.67;100.00
71907;BME280;59781;52.090;5.030;2024-03-23T04:19:44;100975.28;;;4.89;100.00
71907;BME280;59781;52.090;5.030;2024-03-23T04:22:09;100968.06;;;5.10;100.00
71907;BME280;59781;52.090;5.030;2024-03-23T04:24:35;100962.91;;;4.88;100.00
71907;BME280;59781;52.090;5.030;2024-03-23T04:27:01;100967.03;;;5.23;100.00
71907;BME280;59781;52.090;5.030;2024-03-23T04:29:27;100965.34;;;5.22;100.00
71907;BME280;59781;52.090;5.030;2024-03-23T04:31:52;100971.47;;;4.92;100.00
71907;BME280;59781;52.090;5.030;2024-03-23T04:34:18;100968.66;;;4.83;100.00
71907;BME280;59781;52.090;5.030;2024-03-23T04:36:44;100972.88;;;4.65;100.00
71907;BME280;59781;52.090;5.030;2024-03-23T04:39:10;100978.06;;;4.67;100.00
71907;BME280;59781;52.090;5.030;2024-03-23T04:41:35;100968.25;;;4.67;100.00
71907;BME280;59781;52.090;5.030;2024-03-23T04:44:01;100974.63;;;4.76;100.00
71907;BME280;59781;52.090;5.030;2024-03-23T04:46:27;100972.94;;;4.75;100.00
71907;BME280;59781;52.090;5.030;2024-03-23T04:48:53;100967.69;;;4.64;100.00
71907;BME280;59781;52.090;5.030;2024-03-23T04:51:22;100974.69;;;4.85;100.00
71907;BME280;59781;52.090;5.030;2024-03-23T04:53:48;100961.78;;;4.90;100.00
71907;BME280;59781;52.090;5.030;2024-03-23T04:56:15;100965.66;;;4.56;100.00
71907;BME280;59781;52.090;5.030;2024-03-23T04:58:42;100975.94;;;5.02;100.00
71907;BME280;59781;52.090;5.030;2024-03-23T05:01:09;100960.97;;;4.69;100.00
71907;BME280;59781;52.090;5.030;2024-03-23T05:03:37;100966.50;;;4.77;100.00
71907;BME280;59781;52.090;5.030;2024-03-23T05:06:03;100963.97;;;4.76;100.00
71907;BME280;59781;52.090;5.030;2024-03-23T05:08:30;100965.50;;;4.99;100.00
71907;BME280;59781;52.090;5.030;2024-03-23T05:10:56;100964.88;;;4.86;100.00
71907;BME280;59781;52.090;5.030;2024-03-23T05:13:21;100972.25;;;4.73;100.00
71907;BME280;59781;52.090;5.030;2024-03-23T05:15:54;100964.47;;;4.90;100.00
71907;BME280;59781;52.090;5.030;2024-03-23T05:18:21;100959.03;;;4.92;100.00
71907;BME280;59781;52.090;5.030;2024-03-23T05:20:47;100969.44;;;4.74;100.00
71907;BME280;59781;52.090;5.030;2024-03-23T05:23:13;100969.09;;;4.68;100.00
71907;BME280;59781;52.090;5.030;2024-03-23T05:25:38;100977.44;;;4.53;100.00
71907;BME280;59781;52.090;5.030;2024-03-23T05:28:04;100984.19;;;4.57;100.00
71907;BME280;59781;52.090;5.030;2024-03-23T05:30:30;100986.00;;;4.78;100.00
71907;BME280;59781;52.090;5.030;2024-03-23T05:32:56;100975.66;;;5.05;100.00
71907;BME280;59781;52.090;5.030;2024-03-23T05:35:22;100974.91;;;4.73;100.00
71907;BME280;59781;52.090;5.030;2024-03-23T05:37:48;100979.47;;;4.82;100.00
71907;BME280;59781;52.090;5.030;2024-03-23T05:40:13;100979.63;;;4.90;100.00
71907;BME280;59781;52.090;5.030;2024-03-23T05:42:40;100969.94;;;4.89;100.00
71907;BME280;59781;52.090;5.030;2024-03-23T05:45:07;100961.28;;;4.76;100.00
71907;BME280;59781;52.090;5.030;2024-03-23T05:47:33;100964.66;;;4.78;100.00
71907;BME280;59781;52.090;5.030;2024-03-23T05:49:59;100975.78;;;4.62;100.00
71907;BME280;59781;52.090;5.030;2024-03-23T05:52:25;100963.53;;;5.01;100.00
71907;BME280;59781;52.090;5.030;2024-03-23T05:54:51;100966.47;;;4.98;100.00
71907;BME280;59781;52.090;5.030;2024-03-23T05:57:17;100964.94;;;4.96;100.00
71907;BME280;59781;52.090;5.030;2024-03-23T05:59:44;100966.09;;;5.03;100.00
71907;BME280;59781;52.090;5.030;2024-03-23T06:02:10;100968.06;;;5.10;100.00
71907;BME280;59781;52.090;5.030;2024-03-23T06:04:36;100970.25;;;4.96;100.00
71907;BME280;59781;52.090;5.030;2024-03-23T06:07:01;100969.28;;;5.27;100.00
71907;BME280;59781;52.090;5.030;2024-03-23T06:09:27;100958.44;;;5.59;100.00
71907;BME280;59781;52.090;5.030;2024-03-23T06:11:53;100967.13;;;5.11;100.00
71907;BME280;59781;52.090;5.030;2024-03-23T06:14:18;100975.88;;;5.54;100.00
71907;BME280;59781;52.090;5.030;2024-03-23T06:16:44;100974.16;;;5.43;100.00
71907;BME280;59781;52.090;5.030;2024-03-23T06:19:10;100971.53;;;5.62;100.00
71907;BME280;59781;52.090;5.030;2024-03-23T06:21:35;100967.19;;;5.61;100.00
71907;BME280;59781;52.090;5.030;2024-03-23T06:24:01;100959.75;;;5.74;100.00
71907;BME280;59781;52.090;5.030;2024-03-23T06:26:27;100954.38;;;6.44;100.00
71907;BME280;59781;52.090;5.030;2024-03-23T06:28:53;100949.78;;;5.86;100.00
71907;BME280;59781;52.090;5.030;2024-03-23T06:31:19;100938.34;;;7.00;100.00
71907;BME280;59781;52.090;5.030;2024-03-23T06:33:44;100938.84;;;7.23;100.00
71907;BME280;59781;52.090;5.030;2024-03-23T06:36:10;100930.59;;;7.34;100.00
71907;BME280;59781;52.090;5.030;2024-03-23T06:38:37;100923.69;;;8.04;100.00
71907;BME280;59781;52.090;5.030;2024-03-23T06:41:06;100924.53;;;8.05;100.00
71907;BME280;59781;52.090;5.030;2024-03-23T06:43:32;100917.41;;;7.96;100.00
71907;BME280;59781;52.090;5.030;2024-03-23T06:45:57;100924.94;;;8.10;100.00
71907;BME280;59781;52.090;5.030;2024-03-23T06:48:23;100929.75;;;8.24;100.00
71907;BME280;59781;52.090;5.030;2024-03-23T06:50:49;100925.38;;;8.59;100.00
71907;BME280;59781;52.090;5.030;2024-03-23T06:53:15;100926.09;;;8.87;100.00
71907;BME280;59781;52.090;5.030;2024-03-23T06:55:41;100921.28;;;9.25;100.00
71907;BME280;59781;52.090;5.030;2024-03-23T06:58:07;100918.16;;;9.11;100.00
71907;BME280;59781;52.090;5.030;2024-03-23T07:00:34;100916.97;;;9.40;100.00
71907;BME280;59781;52.090;5.030;2024-03-23T07:03:00;100917.53;;;9.17;100.00
71907;BME280;59781;52.090;5.030;2024-03-23T07:05:26;100917.09;;;9.04;100.00
71907;BME280;59781;52.090;5.030;2024-03-23T07:07:51;100916.16;;;9.47;100.00
71907;BME280;59781;52.090;5.030;2024-03-23T07:10:17;100918.41;;;9.68;100.00
71907;BME280;59781;52.090;5.030;2024-03-23T07:12:43;100911.94;;;9.95;100.00
71907;BME280;59781;52.090;5.030;2024-03-23T07:15:10;100922.06;;;8.91;100.00
71907;BME280;59781;52.090;5.030;2024-03-23T07:17:35;100933.91;;;8.19;100.00
71907;BME280;59781;52.090;5.030;2024-03-23T07:20:02;100922.28;;;9.82;100.00
71907;BME280;59781;52.090;5.030;2024-03-23T07:22:32;100930.06;;;9.09;100.00
71907;BME280;59781;52.090;5.030;2024-03-23T07:25:00;100933.09;;;8.36;100.00
71907;BME280;59781;52.090;5.030;2024-03-23T07:27:26;100931.03;;;9.00;100.00
71907;BME280;59781;52.090;5.030;2024-03-23T07:29:52;100920.63;;;8.35;100.00
71907;BME280;59781;52.090;5.030;2024-03-23T07:32:18;100933.75;;;9.42;100.00
71907;BME280;59781;52.090;5.030;2024-03-23T07:34:43;100923.09;;;10.57;100.00
71907;BME280;59781;52.090;5.030;2024-03-23T07:37:13;100928.63;;;9.23;100.00
71907;BME280;59781;52.090;5.030;2024-03-23T07:39:42;100937.38;;;8.47;100.00
71907;BME280;59781;52.090;5.030;2024-03-23T07:42:07;100930.69;;;8.51;100.00
71907;BME280;59781;52.090;5.030;2024-03-23T07:44:33;100924.28;;;9.72;100.00
71907;BME280;59781;52.090;5.030;2024-03-23T07:47:00;100919.13;;;9.02;100.00
71907;BME280;59781;52.090;5.030;2024-03-23T07:49:26;100919.81;;;8.34;100.00
71907;BME280;59781;52.090;5.030;2024-03-23T07:51:52;100918.31;;;8.04;100.00
71907;BME280;59781;52.090;5.030;2024-03-23T07:54:17;100922.22;;;8.63;100.00
71907;BME280;59781;52.090;5.030;2024-03-23T07:56:43;100923.44;;;8.33;100.00
71907;BME280;59781;52.090;5.030;2024-03-23T07:59:09;100935.81;;;7.63;100.00
71907;BME280;59781;52.090;5.030;2024-03-23T08:01:36;100934.28;;;8.42;100.00
71907;BME280;59781;52.090;5.030;2024-03-23T08:04:02;100921.03;;;10.19;100.00
71907;BME280;59781;52.090;5.030;2024-03-23T08:06:28;100921.47;;;9.82;100.00
71907;BME280;59781;52.090;5.030;2024-03-23T08:08:58;100907.22;;;10.87;100.00
71907;BME280;59781;52.090;5.030;2024-03-23T08:11:30;100916.91;;;9.82;100.00
71907;BME280;59781;52.090;5.030;2024-03-23T08:13:57;100912.03;;;9.27;100.00
71907;BME280;59781;52.090;5.030;2024-03-23T08:16:24;100916.09;;;8.53;100.00
71907;BME280;59781;52.090;5.030;2024-03-23T08:18:53;100932.97;;;7.92;100.00
71907;BME280;59781;52.090;5.030;2024-03-23T08:21:19;100923.63;;;7.96;100.00
71907;BME280;59781;52.090;5.030;2024-03-23T08:23:44;100925.34;;;7.70;100.00
71907;BME280;59781;52.090;5.030;2024-03-23T08:26:15;100930.50;;;7.81;100.00
71907;BME280;59781;52.090;5.030;2024-03-23T08:28:43;100925.19;;;7.71;100.00
71907;BME280;59781;52.090;5.030;2024-03-23T08:31:10;100924.59;;;7.78;100.00
71907;BME280;59781;52.090;5.030;2024-03-23T08:33:37;100931.16;;;7.65;100.00
71907;BME280;59781;52.090;5.030;2024-03-23T08:36:06;100927.00;;;7.98;100.00
71907;BME280;59781;52.090;5.030;2024-03-23T08:38:34;100911.66;;;10.47;100.00
71907;BME280;59781;52.090;5.030;2024-03-23T08:41:02;100925.03;;;9.06;100.00
71907;BME280;59781;52.090;5.030;2024-03-23T08:43:35;100929.09;;;8.40;100.00
71907;BME280;59781;52.090;5.030;2024-03-23T08:46:09;100915.88;;;8.29;100.00
71907;BME280;59781;52.090;5.030;2024-03-23T08:48:38;100919.81;;;8.34;100.00
71907;BME280;59781;52.090;5.030;2024-03-23T08:51:06;100906.53;;;9.95;100.00
71907;BME280;59781;52.090;5.030;2024-03-23T08:53:34;100906.31;;;9.30;100.00
71907;BME280;59781;52.090;5.030;2024-03-23T08:56:02;100900.56;;;10.26;100.00
71907;BME280;59781;52.090;5.030;2024-03-23T08:58:30;100902.53;;;11.36;100.00
71907;BME280;59781;52.090;5.030;2024-03-23T09:01:03;100896.53;;;11.57;100.00
71907;BME280;59781;52.090;5.030;2024-03-23T09:03:30;100897.81;;;9.43;100.00
71907;BME280;59781;52.090;5.030;2024-03-23T09:05:56;100912.53;;;8.71;100.00
71907;BME280;59781;52.090;5.030;2024-03-23T09:08:24;100900.88;;;10.72;100.00
71907;BME280;59781;52.090;5.030;2024-03-23T09:10:50;100889.31;;;11.49;100.00
71907;BME280;59781;52.090;5.030;2024-03-23T09:13:15;100886.81;;;11.48;100.00
71907;BME280;59781;52.090;5.030;2024-03-23T09:15:49;100886.16;;;12.69;100.00
71907;BME280;59781;52.090;5.030;2024-03-23T09:18:16;100882.13;;;11.81;100.00
71907;BME280;59781;52.090;5.030;2024-03-23T09:20:43;100890.94;;;10.56;100.00
71907;BME280;59781;52.090;5.030;2024-03-23T09:23:09;100882.81;;;9.91;100.00
71907;BME280;59781;52.090;5.030;2024-03-23T09:25:38;100899.09;;;9.31;100.00
71907;BME280;59781;52.090;5.030;2024-03-23T09:28:08;100902.31;;;8.74;100.00
71907;BME280;59781;52.090;5.030;2024-03-23T09:30:35;100911.91;;;8.51;100.00
71907;BME280;59781;52.090;5.030;2024-03-23T09:33:02;100900.00;;;8.53;100.00
71907;BME280;59781;52.090;5.030;2024-03-23T09:35:28;100913.97;;;8.21;100.00
71907;BME280;59781;52.090;5.030;2024-03-23T09:37:54;100917.56;;;8.30;100.00
71907;BME280;59781;52.090;5.030;2024-03-23T09:40:20;100898.78;;;9.76;100.00
71907;BME280;59781;52.090;5.030;2024-03-23T09:42:51;100889.22;;;10.71;100.00
71907;BME280;59781;52.090;5.030;2024-03-23T09:45:21;100892.94;;;10.05;100.00
71907;BME280;59781;52.090;5.030;2024-03-23T09:47:52;100893.38;;;11.06;100.00
71907;BME280;59781;52.090;5.030;2024-03-23T09:50:18;100878.97;;;12.61;100.00
71907;BME280;59781;52.090;5.030;2024-03-23T09:52:47;100881.91;;;12.14;100.00
71907;BME280;59781;52.090;5.030;2024-03-23T09:55:14;100883.88;;;11.27;100.00
71907;BME280;59781;52.090;5.030;2024-03-23T09:57:42;100902.91;;;10.29;100.00
71907;BME280;59781;52.090;5.030;2024-03-23T10:00:08;100898.19;;;9.48;100.00
71907;BME280;59781;52.090;5.030;2024-03-23T10:02:35;100886.31;;;11.05;100.00
71907;BME280;59781;52.090;5.030;2024-03-23T10:05:01;100895.59;;;11.03;100.00
71907;BME280;59781;52.090;5.030;2024-03-23T10:07:27;100894.78;;;9.96;100.00
71907;BME280;59781;52.090;5.030;2024-03-23T10:09:55;100889.75;;;9.35;100.00
71907;BME280;59781;52.090;5.030;2024-03-23T10:12:23;100895.09;;;9.01;100.00
71907;BME280;59781;52.090;5.030;2024-03-23T10:14:49;100890.34;;;9.20;100.00
71907;BME280;59781;52.090;5.030;2024-03-23T10:17:18;100899.16;;;9.05;100.00
71907;BME280;59781;52.090;5.030;2024-03-23T10:19:45;100889.59;;;10.03;100.00
71907;BME280;59781;52.090;5.030;2024-03-23T10:24:45;100910.03;;;8.95;100.00
71907;BME280;59781;52.090;5.030;2024-03-23T10:27:21;100940.75;;;7.86;100.00
71907;BME280;59781;52.090;5.030;2024-03-23T10:29:48;100940.22;;;7.27;100.00
71907;BME280;59781;52.090;5.030;2024-03-23T10:32:16;100931.09;;;7.20;100.00
71907;BME280;59781;52.090;5.030;2024-03-23T10:34:44;100928.63;;;9.23;100.00
71907;BME280;59781;52.090;5.030;2024-03-23T10:37:10;100920.31;;;9.42;100.00
71907;BME280;59781;52.090;5.030;2024-03-23T10:39:39;100898.81;;;10.09;100.00
71907;BME280;59781;52.090;5.030;2024-03-23T10:42:09;100892.59;;;8.73;100.00
71907;BME280;59781;52.090;5.030;2024-03-23T10:44:37;100897.72;;;8.41;100.00
71907;BME280;59781;52.090;5.030;2024-03-23T10:47:04;100905.25;;;8.37;100.00
71907;BME280;59781;52.090;5.030;2024-03-23T10:49:32;100909.13;;;8.25;100.00
71907;BME280;59781;52.090;5.030;2024-03-23T10:52:03;100918.56;;;8.29;100.00
71907;BME280;59781;52.090;5.030;2024-03-23T10:54:30;100904.19;;;10.00;100.00
71907;BME280;59781;52.090;5.030;2024-03-23T10:57:20;100895.78;;;10.20;100.00
71907;BME280;59781;52.090;5.030;2024-03-23T10:59:49;100898.91;;;9.66;100.00
71907;BME280;59781;52.090;5.030;2024-03-23T11:02:19;100906.13;;;9.66;100.00
71907;BME280;59781;52.090;5.030;2024-03-23T11:04:45;100898.91;;;9.66;100.00
71907;BME280;59781;52.090;5.030;2024-03-23T11:09:54;100890.09;;;10.15;100.00
71907;BME280;59781;52.090;5.030;2024-03-23T11:14:50;100880.34;;;11.26;100.00
71907;BME280;59781;52.090;5.030;2024-03-23T11:17:23;100881.44;;;9.70;100.00
71907;BME280;59781;52.090;5.030;2024-03-23T11:20:01;100884.66;;;9.82;100.00
71907;BME280;59781;52.090;5.030;2024-03-23T11:25:24;100886.69;;;9.96;100.00
71907;BME280;59781;52.090;5.030;2024-03-23T11:27:56;100883.00;;;10.05;100.00
71907;BME280;59781;52.090;5.030;2024-03-23T11:30:24;100880.47;;;9.29;100.00
71907;BME280;59781;52.090;5.030;2024-03-23T11:32:56;100884.13;;;8.86;100.00
71907;BME280;59781;52.090;5.030;2024-03-23T11:35:31;100891.50;;;9.18;100.00
71907;BME280;59781;52.090;5.030;2024-03-23T11:40:35;100867.59;;;11.12;100.00
71907;BME280;59781;52.090;5.030;2024-03-23T11:43:03;100861.00;;;11.85;100.00
71907;BME280;59781;52.090;5.030;2024-03-23T11:45:35;100864.81;;;11.28;100.00
71907;BME280;59781;52.090;5.030;2024-03-23T11:50:33;100861.81;;;9.94;100.00
71907;BME280;59781;52.090;5.030;2024-03-23T11:53:14;100872.84;;;9.67;100.00
71907;BME280;59781;52.090;5.030;2024-03-23T11:55:52;100868.19;;;9.27;100.00
71907;BME280;59781;52.090;5.030;2024-03-23T11:58:21;100853.19;;;9.58;100.00
71907;BME280;59781;52.090;5.030;2024-03-23T12:01:02;100860.88;;;9.45;100.00
71907;BME280;59781;52.090;5.030;2024-03-23T12:03:29;100861.91;;;9.10;100.00
71907;BME280;59781;52.090;5.030;2024-03-23T12:06:00;100854.88;;;9.67;100.00
71907;BME280;59781;52.090;5.030;2024-03-23T12:08:31;100843.66;;;10.04;100.00
71907;BME280;59781;52.090;5.030;2024-03-23T12:11:11;100843.41;;;10.87;100.00
71907;BME280;59781;52.090;5.030;2024-03-23T12:13:42;100832.72;;;9.98;100.00
71907;BME280;59781;52.090;5.030;2024-03-23T12:18:43;100842.13;;;10.10;100.00
71907;BME280;59781;52.090;5.030;2024-03-23T12:21:10;100841.00;;;11.01;100.00
71907;BME280;59781;52.090;5.030;2024-03-23T12:23:40;100825.50;;;10.39;100.00
71907;BME280;59781;52.090;5.030;2024-03-23T12:26:06;100835.38;;;9.57;100.00
71907;BME280;59781;52.090;5.030;2024-03-23T12:28:32;100829.50;;;9.11;100.00
71907;BME280;59781;52.090;5.030;2024-03-23T12:30:59;100826.16;;;11.13;100.00
71907;BME280;59781;52.090;5.030;2024-03-23T12:33:24;100808.81;;;12.15;100.00
71907;BME280;59781;52.090;5.030;2024-03-23T12:35:51;100822.44;;;10.58;100.00
71907;BME280;59781;52.090;5.030;2024-03-23T12:38:17;100824.66;;;10.47;100.00
71907;BME280;59781;52.090;5.030;2024-03-23T12:40:46;100816.41;;;10.32;100.00
71907;BME280;59781;52.090;5.030;2024-03-23T12:43:16;100817.94;;;9.86;100.00
71907;BME280;59781;52.090;5.030;2024-03-23T12:45:47;100817.47;;;9.32;100.00
71907;BME280;59781;52.090;5.030;2024-03-23T12:48:13;100818.41;;;9.06;100.00
71907;BME280;59781;52.090;5.030;2024-03-23T12:50:39;100832.84;;;11.17;100.00
71907;BME280;59781;52.090;5.030;2024-03-23T12:53:05;100830.88;;;10.55;100.00
71907;BME280;59781;52.090;5.030;2024-03-23T12:55:30;100834.72;;;9.88;100.00
71907;BME280;59781;52.090;5.030;2024-03-23T12:57:56;100841.50;;;8.57;100.00
71907;BME280;59781;52.090;5.030;2024-03-23T13:00:22;100861.22;;;7.76;100.00
71907;BME280;59781;52.090;5.030;2024-03-23T13:02:47;100867.72;;;7.11;100.00
71907;BME280;59781;52.090;5.030;2024-03-23T13:05:13;100872.88;;;6.85;100.00
71907;BME280;59781;52.090;5.030;2024-03-23T13:07:39;100868.06;;;7.89;100.00
71907;BME280;59781;52.090;5.030;2024-03-23T13:10:05;100869.19;;;8.91;100.00
71907;BME280;59781;52.090;5.030;2024-03-23T13:12:32;100866.66;;;8.20;100.00
71907;BME280;59781;52.090;5.030;2024-03-23T13:14:59;100844.63;;;8.09;100.00
71907;BME280;59781;52.090;5.030;2024-03-23T13:17:26;100836.69;;;9.45;100.00
71907;BME280;59781;52.090;5.030;2024-03-23T13:19:55;100837.28;;;10.46;100.00
71907;BME280;59781;52.090;5.030;2024-03-23T13:22:21;100830.84;;;9.66;100.00
71907;BME280;59781;52.090;5.030;2024-03-23T13:24:47;100832.41;;;9.26;100.00
71907;BME280;59781;52.090;5.030;2024-03-23T13:27:13;100825.91;;;8.95;100.00
71907;BME280;59781;52.090;5.030;2024-03-23T13:29:39;100834.06;;;8.51;100.00
71907;BME280;59781;52.090;5.030;2024-03-23T13:32:05;100831.69;;;8.30;100.00
71907;BME280;59781;52.090;5.030;2024-03-23T13:34:31;100830.13;;;8.01;100.00
71907;BME280;59781;52.090;5.030;2024-03-23T13:36:59;100822.28;;;8.26;100.00
71907;BME280;59781;52.090;5.030;2024-03-23T13:39:28;100816.44;;;9.16;100.00
71907;BME280;59781;52.090;5.030;2024-03-23T13:41:54;100819.47;;;10.29;100.00
71907;BME280;59781;52.090;5.030;2024-03-23T13:44:21;100790.78;;;11.08;100.00
71907;BME280;59781;52.090;5.030;2024-03-23T13:46:47;100799.41;;;11.34;100.00
71907;BME280;59781;52.090;5.030;2024-03-23T13:49:33;100789.66;;;12.25;100.00
71907;BME280;59781;52.090;5.030;2024-03-23T13:51:59;100780.28;;;12.35;100.00
71907;BME280;59781;52.090;5.030;2024-03-23T13:54:26;100780.28;;;12.65;100.00
71907;BME280;59781;52.090;5.030;2024-03-23T13:56:54;100772.94;;;11.38;100.00
71907;BME280;59781;52.090;5.030;2024-03-23T13:59:21;100772.91;;;11.15;100.00